createdAt,value
2023-03-24T00:00:05.356Z,100192.75
2023-03-24T00:02:42.416Z,100195.53
2023-03-24T00:05:20.230Z,100189.72
2023-03-24T00:07:55.402Z,100190.78
2023-03-24T00:10:35.025Z,100183.47
2023-03-24T00:13:09.494Z,100201.78
2023-03-24T00:15:45.530Z,100197.06
2023-03-24T00:18:22.587Z,100187.75
2023-03-24T00:20:59.430Z,100186.69
2023-03-24T00:23:34.891Z,100187.28
2023-03-24T00:26:12.414Z,100188.63
2023-03-24T00:28:49.821Z,100174.25
2023-03-24T00:31:25.907Z,100180.09
2023-03-24T00:34:02.591Z,100177.78
2023-03-24T00:36:38.739Z,100172.63
2023-03-24T00:39:12.957Z,100179.03
2023-03-24T00:41:48.865Z,100161.75
2023-03-24T00:44:23.223Z,100164.78
2023-03-24T00:46:57.805Z,100153.50
2023-03-24T00:49:46.920Z,100156.09
2023-03-24T00:52:25.156Z,100154.59
2023-03-24T00:55:01.904Z,100147.59
2023-03-24T00:57:36.628Z,100145.13
2023-03-24T01:00:16.805Z,100138.25
2023-03-24T01:02:54.274Z,100134.41
2023-03-24T01:05:31.549Z,100119.91
2023-03-24T01:08:08.866Z,100122.53
2023-03-24T01:10:53.369Z,100114.75
2023-03-24T01:13:29.914Z,100113.16
2023-03-24T01:16:04.677Z,100102.00
2023-03-24T01:18:40.838Z,100096.91
2023-03-24T01:21:15.216Z,100103.03
2023-03-24T01:23:51.213Z,100102.72
2023-03-24T01:26:25.397Z,100099.09
2023-03-24T01:29:00.189Z,100097.53
2023-03-24T01:31:34.552Z,100103.62
2023-03-24T01:34:09.192Z,100099.19
2023-03-24T01:36:43.394Z,100095.09
2023-03-24T01:39:19.362Z,100090.47
2023-03-24T01:41:53.571Z,100095.09
2023-03-24T01:44:32.143Z,100097.00
2023-03-24T01:47:08.978Z,100093.44
2023-03-24T01:49:46.909Z,100092.81
2023-03-24T01:52:25.520Z,100095.06
2023-03-24T01:55:05.443Z,100087.72
2023-03-24T01:57:43.637Z,100089.28
2023-03-24T02:00:21.056Z,100089.94
2023-03-24T02:03:00.480Z,100092.88
2023-03-24T02:05:39.437Z,100098.19
2023-03-24T02:08:19.343Z,100088.88
2023-03-24T02:10:56.340Z,100090.63
2023-03-24T02:13:31.878Z,100097.06
2023-03-24T02:16:32.280Z,100086.41
2023-03-24T02:19:38.549Z,100080.16
2023-03-24T02:22:46.077Z,100079.97
2023-03-24T02:25:53.151Z,100074.47
2023-03-24T02:28:40.087Z,100067.00
2023-03-24T02:31:39.747Z,100071.75
2023-03-24T02:34:50.130Z,100061.03
2023-03-24T02:37:34.417Z,100061.81
2023-03-24T02:40:23.889Z,100061.03
2023-03-24T02:43:15.667Z,100067.16
2023-03-24T02:46:00.918Z,100060.16
2023-03-24T02:48:41.466Z,100057.72
2023-03-24T02:51:24.525Z,100059.22
2023-03-24T02:54:09.352Z,100045.47
2023-03-24T02:56:51.388Z,100052.50
2023-03-24T02:59:33.211Z,100032.81
2023-03-24T03:02:11.175Z,100035.25
2023-03-24T03:04:50.130Z,100040.75
2023-03-24T03:07:33.602Z,100028.69
2023-03-24T03:10:16.535Z,100038.31
2023-03-24T03:12:57.136Z,100025.94
2023-03-24T03:15:37.133Z,100026.09
2023-03-24T03:18:18.869Z,100028.09
2023-03-24T03:20:58.479Z,100027.63
2023-03-24T03:23:38.247Z,100035.41
2023-03-24T03:26:16.889Z,100033.44
2023-03-24T03:28:58.284Z,100036.31
2023-03-24T03:31:42.023Z,100030.50
2023-03-24T03:34:22.796Z,100020.75
2023-03-24T03:36:59.389Z,100024.25
2023-03-24T03:39:37.277Z,100027.94
2023-03-24T03:42:12.178Z,100033.87
2023-03-24T03:44:48.719Z,100030.53
2023-03-24T03:47:23.758Z,100018.31
2023-03-24T03:49:58.609Z,100028.41
2023-03-24T03:52:33.110Z,100025.03
2023-03-24T03:55:09.180Z,100015.44
2023-03-24T03:57:44.535Z,100018.19
2023-03-24T04:00:24.717Z,100011.47
2023-03-24T04:03:31.039Z,100022.31
2023-03-24T04:06:16.178Z,100016.06
2023-03-24T04:08:52.826Z,100017.13
2023-03-24T04:11:41.952Z,100001.88
2023-03-24T04:14:37.474Z,100012.22
2023-03-24T04:17:27.952Z,100005.53
2023-03-24T04:20:12.110Z,100012.38
2023-03-24T04:23:03.199Z,100003.84
2023-03-24T04:25:49.946Z,100000.66
2023-03-24T04:28:32.140Z,100003.37
2023-03-24T04:31:16.422Z,99998.50
2023-03-24T04:33:58.518Z,100006.75
2023-03-24T04:36:42.656Z,100011.31
2023-03-24T04:39:25.695Z,100002.31
2023-03-24T04:42:04.335Z,100016.34
2023-03-24T04:44:41.787Z,100020.63
2023-03-24T04:47:21.378Z,100005.06
2023-03-24T04:50:04.996Z,100013.44
2023-03-24T04:52:40.803Z,100021.03
2023-03-24T04:55:38.935Z,100034.94
2023-03-24T04:58:13.710Z,100042.75
2023-03-24T05:00:49.346Z,100033.91
2023-03-24T05:03:24.103Z,100034.81
2023-03-24T05:06:00.147Z,100027.50
2023-03-24T05:08:36.873Z,100018.72
2023-03-24T05:11:11.895Z,100009.56
2023-03-24T05:13:47.667Z,100022.22
2023-03-24T05:16:22.858Z,100029.69
2023-03-24T05:18:58.400Z,100029.75
2023-03-24T05:21:34.694Z,100040.47
2023-03-24T05:24:09.869Z,100045.19
2023-03-24T05:26:44.288Z,100041.84
2023-03-24T05:29:19.530Z,100041.06
2023-03-24T05:31:53.985Z,100057.37
2023-03-24T05:34:28.653Z,100061.06
2023-03-24T05:37:04.644Z,100063.47
2023-03-24T05:39:39.265Z,100045.03
2023-03-24T05:42:14.292Z,100057.84
2023-03-24T05:44:48.987Z,100048.53
2023-03-24T05:47:24.060Z,100040.13
2023-03-24T05:49:59.071Z,100049.59
2023-03-24T05:52:35.977Z,100057.66
2023-03-24T05:55:17.112Z,100056.84
2023-03-24T05:57:51.717Z,100049.69
2023-03-24T06:00:26.909Z,100046.87
2023-03-24T06:03:03.495Z,100037.91
2023-03-24T06:05:41.214Z,100039.94
2023-03-24T06:08:18.844Z,100038.09
2023-03-24T06:10:53.807Z,100044.88
2023-03-24T06:13:28.784Z,100046.56
2023-03-24T06:16:03.942Z,100053.22
2023-03-24T06:18:40.570Z,100053.59
2023-03-24T06:21:18.658Z,100052.09
2023-03-24T06:23:56.499Z,100048.19
2023-03-24T06:26:31.125Z,100048.94
2023-03-24T06:29:06.016Z,100058.81
2023-03-24T06:31:40.919Z,100047.31
2023-03-24T06:34:15.599Z,100047.03
2023-03-24T06:36:50.661Z,100045.34
2023-03-24T06:39:26.919Z,100049.59
2023-03-24T06:42:01.262Z,100050.00
2023-03-24T06:44:36.802Z,100047.41
2023-03-24T06:47:11.051Z,100045.81
2023-03-24T06:49:46.486Z,100043.63
2023-03-24T06:52:20.789Z,100036.00
2023-03-24T06:54:58.289Z,100046.28
2023-03-24T06:57:32.904Z,100039.25
2023-03-24T07:02:56.322Z,100026.00
2023-03-24T07:05:32.581Z,100026.00
2023-03-24T07:08:33.923Z,100026.69
2023-03-24T07:11:03.980Z,100021.69
2023-03-24T07:13:38.581Z,100019.41
2023-03-24T07:16:13.166Z,100019.31
2023-03-24T07:18:49.333Z,100023.28
2023-03-24T07:21:24.119Z,100017.66
2023-03-24T07:23:58.581Z,100019.47
2023-03-24T07:26:33.522Z,100022.72
2023-03-24T07:29:07.886Z,100020.19
2023-03-24T07:31:44.924Z,100011.25
2023-03-24T07:34:22.292Z,100015.88
2023-03-24T07:36:57.740Z,100020.78
2023-03-24T07:39:33.406Z,100026.44
2023-03-24T07:42:09.465Z,100026.38
2023-03-24T07:44:46.565Z,100016.44
2023-03-24T07:47:21.550Z,100018.56
2023-03-24T07:49:57.352Z,100009.03
2023-03-24T07:52:31.944Z,100006.66
2023-03-24T07:55:09.735Z,100006.66
2023-03-24T07:57:48.434Z,100003.41
2023-03-24T08:00:25.230Z,99995.09
2023-03-24T08:03:01.663Z,99993.34
2023-03-24T08:05:47.412Z,99997.12
2023-03-24T08:08:22.699Z,99985.78
2023-03-24T08:10:57.233Z,99987.31
2023-03-24T08:13:31.851Z,99992.09
2023-03-24T08:16:06.621Z,99987.31
2023-03-24T08:18:41.266Z,99984.78
2023-03-24T08:21:16.947Z,99983.22
2023-03-24T08:23:51.572Z,99976.94
2023-03-24T08:26:26.784Z,99974.38
2023-03-24T08:29:01.364Z,99966.53
2023-03-24T08:31:37.025Z,99965.47
2023-03-24T08:34:12.554Z,99964.59
2023-03-24T08:36:48.249Z,99974.09
2023-03-24T08:39:24.408Z,99967.22
2023-03-24T08:41:58.746Z,99963.41
2023-03-24T08:44:33.835Z,99960.84
2023-03-24T08:47:11.032Z,99958.50
2023-03-24T08:49:45.667Z,99957.47
2023-03-24T08:52:21.616Z,99947.28
2023-03-24T08:54:56.481Z,99948.00
2023-03-24T08:57:30.721Z,99942.13
2023-03-24T09:00:13.675Z,99948.31
2023-03-24T09:02:49.551Z,99940.63
2023-03-24T09:05:37.088Z,99944.00
2023-03-24T09:08:20.699Z,99936.78
2023-03-24T09:10:55.489Z,99930.16
2023-03-24T09:13:29.820Z,99918.47
2023-03-24T09:16:05.546Z,99916.56
2023-03-24T09:18:39.860Z,99917.78
2023-03-24T09:21:15.228Z,99922.25
2023-03-24T09:23:51.322Z,99912.81
2023-03-24T09:26:26.180Z,99909.16
2023-03-24T09:29:00.481Z,99905.38
2023-03-24T09:31:35.538Z,99909.44
2023-03-24T09:34:09.799Z,99903.63
2023-03-24T09:36:44.342Z,99905.28
2023-03-24T09:39:20.200Z,99898.62
2023-03-24T09:41:56.306Z,99907.44
2023-03-24T09:44:34.822Z,99901.56
2023-03-24T09:47:28.008Z,99887.13
2023-03-24T09:50:07.933Z,99883.47
2023-03-24T09:52:44.231Z,99887.69
2023-03-24T09:55:25.758Z,99878.28
2023-03-24T09:58:06.282Z,99875.81
2023-03-24T10:00:48.640Z,99875.06
2023-03-24T10:03:24.939Z,99864.94
2023-03-24T10:06:06.434Z,99869.03
2023-03-24T10:08:44.545Z,99865.97
2023-03-24T10:11:26.949Z,99861.56
2023-03-24T10:14:14.859Z,99861.31
2023-03-24T10:16:56.055Z,99854.22
2023-03-24T10:19:41.641Z,99850.78
2023-03-24T10:22:23.360Z,99850.19
2023-03-24T10:25:06.904Z,99864.56
2023-03-24T10:27:48.121Z,99861.69
2023-03-24T10:30:26.895Z,99852.44
2023-03-24T10:33:01.188Z,99862.41
2023-03-24T10:35:41.698Z,99859.69
2023-03-24T10:38:18.617Z,99854.28
2023-03-24T10:40:55.919Z,99861.00
2023-03-24T10:43:33.447Z,99856.28
2023-03-24T10:46:08.582Z,99854.78
2023-03-24T10:48:45.995Z,99853.28
2023-03-24T10:51:23.086Z,99848.44
2023-03-24T10:54:12.358Z,99838.47
2023-03-24T10:56:48.366Z,99846.53
2023-03-24T10:59:32.285Z,99842.44
2023-03-24T11:02:18.857Z,99844.28
2023-03-24T11:04:58.447Z,99829.66
2023-03-24T11:07:36.724Z,99830.00
2023-03-24T11:10:17.156Z,99823.84
2023-03-24T11:13:04.121Z,99811.09
2023-03-24T11:15:53.281Z,99793.38
2023-03-24T11:18:27.923Z,99803.19
2023-03-24T11:21:05.104Z,99796.69
2023-03-24T11:23:43.073Z,99783.72
2023-03-24T11:26:21.407Z,99786.31
2023-03-24T11:28:59.497Z,99768.44
2023-03-24T11:31:38.396Z,99784.06
2023-03-24T11:34:20.068Z,99774.16
2023-03-24T11:36:57.797Z,99766.78
2023-03-24T11:39:35.518Z,99767.09
2023-03-24T11:42:17.917Z,99758.38
2023-03-24T11:44:53.374Z,99753.28
2023-03-24T11:47:32.895Z,99753.84
2023-03-24T11:50:19.100Z,99755.09
2023-03-24T11:52:58.195Z,99753.94
2023-03-24T11:55:47.152Z,99745.78
2023-03-24T11:58:31.121Z,99741.66
2023-03-24T12:01:11.247Z,99742.75
2023-03-24T12:04:02.568Z,99728.22
2023-03-24T12:06:55.834Z,99734.19
2023-03-24T12:09:39.121Z,99723.19
2023-03-24T12:12:25.484Z,99721.28
2023-03-24T12:15:27.981Z,99713.06
2023-03-24T12:18:19.210Z,99716.63
2023-03-24T12:21:04.607Z,99718.66
2023-03-24T12:23:49.365Z,99713.59
2023-03-24T12:26:26.411Z,99710.81
2023-03-24T12:29:26.602Z,99698.66
2023-03-24T12:32:15.007Z,99681.84
2023-03-24T12:35:30.419Z,99693.44
2023-03-24T12:38:22.121Z,99677.53
2023-03-24T12:41:29.432Z,99675.13
2023-03-24T12:44:29.565Z,99675.09
2023-03-24T12:47:13.895Z,99675.38
2023-03-24T12:50:03.006Z,99672.53
2023-03-24T12:53:07.570Z,99672.09
2023-03-24T12:55:47.744Z,99658.28
2023-03-24T12:58:27.584Z,99670.59
2023-03-24T13:01:07.817Z,99675.44
2023-03-24T13:03:47.453Z,99669.28
2023-03-24T13:06:27.165Z,99666.50
2023-03-24T13:09:13.258Z,99672.47
2023-03-24T13:11:58.773Z,99658.84
2023-03-24T13:14:44.408Z,99651.16
2023-03-24T13:17:23.141Z,99642.97
2023-03-24T13:19:59.254Z,99647.53
2023-03-24T13:22:37.460Z,99636.25
2023-03-24T13:25:23.876Z,99636.41
2023-03-24T13:28:06.360Z,99645.38
2023-03-24T13:30:43.416Z,99643.13
2023-03-24T13:33:21.920Z,99631.72
2023-03-24T13:36:10.915Z,99630.16
2023-03-24T13:38:51.659Z,99625.19
2023-03-24T13:41:28.089Z,99629.88
2023-03-24T13:44:09.700Z,99625.28
2023-03-24T13:46:44.728Z,99625.66
2023-03-24T13:49:20.626Z,99629.13
2023-03-24T13:51:54.902Z,99625.56
2023-03-24T13:54:30.490Z,99628.75
2023-03-24T13:57:08.311Z,99622.16
2023-03-24T14:00:08.530Z,99611.16
2023-03-24T14:02:49.794Z,99615.19
2023-03-24T14:05:42.368Z,99610.53
2023-03-24T14:08:19.883Z,99599.34
2023-03-24T14:10:54.180Z,99604.44
2023-03-24T14:13:48.724Z,99596.66
2023-03-24T14:16:43.590Z,99598.47
2023-03-24T14:19:24.525Z,99599.81
2023-03-24T14:22:05.346Z,99591.34
2023-03-24T14:24:41.218Z,99592.66
2023-03-24T14:27:34.781Z,99585.12
2023-03-24T14:30:21.426Z,99586.94
2023-03-24T14:32:58.794Z,99592.47
2023-03-24T14:35:37.441Z,99590.94
2023-03-24T14:38:25.191Z,99595.78
2023-03-24T14:41:07.426Z,99591.53
2023-03-24T14:43:57.082Z,99583.13
2023-03-24T14:46:43.109Z,99580.09
2023-03-24T14:49:24.819Z,99580.88
2023-03-24T14:52:03.630Z,99576.03
2023-03-24T14:54:42.142Z,99571.69
2023-03-24T14:57:21.458Z,99573.16
2023-03-24T15:00:02.772Z,99573.75
2023-03-24T15:03:19.274Z,99569.88
2023-03-24T15:05:54.107Z,99569.88
2023-03-24T15:08:28.901Z,99574.50
2023-03-24T15:11:06.857Z,99568.91
2023-03-24T15:13:45.861Z,99571.12
2023-03-24T15:16:23.978Z,99567.06
2023-03-24T15:19:02.619Z,99559.75
2023-03-24T15:21:38.776Z,99556.94
2023-03-24T15:24:32.076Z,99552.78
2023-03-24T15:27:21.437Z,99559.13
2023-03-24T15:29:59.269Z,99556.78
2023-03-24T15:32:39.123Z,99552.28
2023-03-24T15:35:17.380Z,99555.09
2023-03-24T15:37:53.860Z,99553.78
2023-03-24T15:40:40.850Z,99559.47
2023-03-24T15:43:21.246Z,99542.53
2023-03-24T15:46:08.778Z,99553.69
2023-03-24T15:48:48.382Z,99546.03
2023-03-24T15:51:48.939Z,99555.81
2023-03-24T15:54:26.531Z,99548.44
2023-03-24T15:57:03.313Z,99547.62
2023-03-24T15:59:38.532Z,99548.38
2023-03-24T16:02:17.873Z,99549.69
2023-03-24T16:05:04.083Z,99538.94
2023-03-24T16:07:43.729Z,99532.97
2023-03-24T16:10:32.545Z,99536.72
2023-03-24T16:13:17.755Z,99541.31
2023-03-24T16:15:58.020Z,99541.72
2023-03-24T16:18:34.314Z,99550.50
2023-03-24T16:21:14.687Z,99542.88
2023-03-24T16:23:54.540Z,99548.50
2023-03-24T16:26:30.147Z,99540.34
2023-03-24T16:29:17.431Z,99534.69
2023-03-24T16:31:54.142Z,99535.72
2023-03-24T16:34:28.339Z,99549.97
2023-03-24T16:37:04.322Z,99540.38
2023-03-24T16:39:40.270Z,99535.81
2023-03-24T16:42:15.124Z,99532.47
2023-03-24T16:44:49.423Z,99540.12
2023-03-24T16:47:26.805Z,99532.28
2023-03-24T16:50:01.272Z,99536.50
2023-03-24T16:52:36.211Z,99534.25
2023-03-24T16:55:12.174Z,99534.56
2023-03-24T16:57:46.979Z,99531.78
2023-03-24T17:00:22.625Z,99531.75
2023-03-24T17:02:59.993Z,99530.94
2023-03-24T17:05:41.387Z,99535.63
2023-03-24T17:08:16.259Z,99534.50
2023-03-24T17:10:53.831Z,99538.72
2023-03-24T17:13:28.402Z,99543.34
2023-03-24T17:16:02.887Z,99547.94
2023-03-24T17:18:39.659Z,99553.66
2023-03-24T17:21:16.215Z,99544.16
2023-03-24T17:23:55.058Z,99549.66
2023-03-24T17:26:32.106Z,99548.78
2023-03-24T17:29:07.684Z,99543.19
2023-03-24T17:31:44.087Z,99540.84
2023-03-24T17:34:22.190Z,99548.63
2023-03-24T17:36:56.794Z,99539.81
2023-03-24T17:39:31.637Z,99548.09
2023-03-24T17:42:09.012Z,99557.16
2023-03-24T17:44:44.239Z,99554.56
2023-03-24T17:47:18.644Z,99554.81
2023-03-24T17:49:53.215Z,99553.47
2023-03-24T17:52:27.768Z,99564.47
2023-03-24T17:55:04.481Z,99564.63
2023-03-24T17:57:40.487Z,99557.41
2023-03-24T18:00:18.140Z,99561.81
2023-03-24T18:02:52.830Z,99562.28
2023-03-24T18:05:27.655Z,99563.31
2023-03-24T18:08:03.064Z,99555.47
2023-03-24T18:10:37.759Z,99567.03
2023-03-24T18:13:14.309Z,99564.97
2023-03-24T18:15:49.018Z,99566.22
2023-03-24T18:18:23.894Z,99564.63
2023-03-24T18:20:58.305Z,99568.88
2023-03-24T18:23:32.827Z,99572.53
2023-03-24T18:26:09.240Z,99565.00
2023-03-24T18:28:46.821Z,99567.53
2023-03-24T18:31:23.239Z,99559.31
2023-03-24T18:33:58.441Z,99566.34
2023-03-24T18:36:33.173Z,99566.50
2023-03-24T18:39:10.845Z,99556.12
2023-03-24T18:41:45.375Z,99568.94
2023-03-24T18:44:22.450Z,99574.34
2023-03-24T18:46:57.004Z,99566.19
2023-03-24T18:49:32.259Z,99560.22
2023-03-24T18:52:09.599Z,99561.75
2023-03-24T18:54:44.997Z,99570.69
2023-03-24T18:57:20.351Z,99577.56
2023-03-24T18:59:57.740Z,99573.94
2023-03-24T19:02:33.744Z,99572.25
2023-03-24T19:05:10.197Z,99578.56
2023-03-24T19:07:46.045Z,99582.31
2023-03-24T19:10:21.059Z,99575.28
2023-03-24T19:12:56.327Z,99569.03
2023-03-24T19:15:35.538Z,99569.50
2023-03-24T19:18:10.110Z,99571.22
2023-03-24T19:20:46.266Z,99582.69
2023-03-24T19:23:23.002Z,99574.22
2023-03-24T19:25:58.206Z,99570.44
2023-03-24T19:28:36.248Z,99572.38
2023-03-24T19:31:18.780Z,99566.53
2023-03-24T19:33:53.748Z,99572.88
2023-03-24T19:36:28.691Z,99577.66
2023-03-24T19:39:03.927Z,99586.28
2023-03-24T19:41:38.800Z,99581.34
2023-03-24T19:44:13.454Z,99583.94
2023-03-24T19:46:50.759Z,99591.03
2023-03-24T19:49:24.914Z,99591.81
2023-03-24T19:51:59.705Z,99584.50
2023-03-24T19:54:34.332Z,99598.09
2023-03-24T19:57:09.318Z,99605.69
2023-03-24T19:59:44.178Z,99603.00
2023-03-24T20:02:21.292Z,99597.22
2023-03-24T20:04:56.678Z,99595.72
2023-03-24T20:07:31.420Z,99593.97
2023-03-24T20:10:07.242Z,99587.47
2023-03-24T20:12:41.823Z,99585.94
2023-03-24T20:15:16.730Z,99576.88
2023-03-24T20:17:52.755Z,99580.41
2023-03-24T20:20:27.881Z,99582.91
2023-03-24T20:23:02.421Z,99590.22
2023-03-24T20:25:37.491Z,99574.87
2023-03-24T20:28:13.098Z,99580.16
2023-03-24T20:30:47.995Z,99584.94
2023-03-24T20:33:23.725Z,99587.97
2023-03-24T20:35:58.989Z,99580.41
2023-03-24T20:38:33.645Z,99575.13
2023-03-24T20:41:09.457Z,99579.94
2023-03-24T20:43:43.735Z,99582.72
2023-03-24T20:46:19.636Z,99591.75
2023-03-24T20:48:56.106Z,99592.78
2023-03-24T20:51:31.002Z,99585.22
2023-03-24T20:54:07.891Z,99592.72
2023-03-24T20:56:42.964Z,99591.97
2023-03-24T20:59:18.432Z,99589.69
2023-03-24T21:01:53.399Z,99586.16
2023-03-24T21:04:29.125Z,99595.94
2023-03-24T21:07:04.172Z,99599.69
2023-03-24T21:09:38.970Z,99593.12
2023-03-24T21:12:13.747Z,99603.19
2023-03-24T21:14:49.138Z,99597.22
2023-03-24T21:17:23.910Z,99599.25
2023-03-24T21:20:13.337Z,99598.19
2023-03-24T21:22:55.175Z,99598.47
2023-03-24T21:25:31.820Z,99599.97
2023-03-24T21:28:06.795Z,99599.47
2023-03-24T21:30:41.340Z,99607.00
2023-03-24T21:33:16.821Z,99617.59
2023-03-24T21:35:52.859Z,99622.19
2023-03-24T21:38:27.752Z,99625.38
2023-03-24T21:41:02.888Z,99628.88
2023-03-24T21:43:38.392Z,99628.91
2023-03-24T21:46:20.527Z,99634.75
2023-03-24T21:48:59.479Z,99629.97
2023-03-24T21:51:36.948Z,99628.75
2023-03-24T21:54:15.067Z,99633.78
2023-03-24T21:56:49.457Z,99632.00
2023-03-24T21:59:24.278Z,99634.28
2023-03-24T22:01:58.783Z,99630.25
2023-03-24T22:04:38.216Z,99630.00
2023-03-24T22:07:14.183Z,99620.44
2023-03-24T22:09:50.835Z,99621.19
2023-03-24T22:12:25.151Z,99605.84
2023-03-24T22:14:59.741Z,99608.38
2023-03-24T22:17:35.732Z,99611.87
2023-03-24T22:20:12.275Z,99625.22
2023-03-24T22:22:48.294Z,99621.19
2023-03-24T22:25:24.319Z,99618.94
2023-03-24T22:27:58.566Z,99625.22
2023-03-24T22:30:33.354Z,99613.16
2023-03-24T22:33:07.577Z,99601.56
2023-03-24T22:35:42.564Z,99594.03
2023-03-24T22:38:18.263Z,99599.81
2023-03-24T22:40:53.125Z,99594.53
2023-03-24T22:43:27.720Z,99604.34
2023-03-24T22:46:02.340Z,99592.03
2023-03-24T22:48:36.766Z,99595.00
2023-03-24T22:51:16.995Z,99600.31
2023-03-24T22:53:52.701Z,99609.38
2023-03-24T22:56:27.333Z,99613.22
2023-03-24T22:59:01.561Z,99617.69
2023-03-24T23:02:57.925Z,99632.16
2023-03-24T23:05:32.852Z,99632.16
2023-03-24T23:08:07.651Z,99636.88
2023-03-24T23:10:43.637Z,99638.91
2023-03-24T23:13:18.061Z,99639.22
2023-03-24T23:15:53.651Z,99644.31
2023-03-24T23:18:29.782Z,99653.69
2023-03-24T23:21:07.243Z,99653.62
2023-03-24T23:23:43.016Z,99645.31
2023-03-24T23:26:26.275Z,99646.12
2023-03-24T23:29:01.139Z,99647.34
2023-03-24T23:31:36.566Z,99650.00
2023-03-24T23:34:13.148Z,99636.75
2023-03-24T23:36:50.495Z,99640.31
2023-03-24T23:39:24.959Z,99635.78
2023-03-24T23:41:59.885Z,99631.97
2023-03-24T23:44:34.346Z,99631.75
2023-03-24T23:47:09.076Z,99632.78
2023-03-24T23:49:44.680Z,99639.41
2023-03-24T23:52:19.567Z,99638.28
2023-03-24T23:54:56.787Z,99637.91
2023-03-24T23:57:31.715Z,99640.13
